createdAt,value
2022-09-04T00:02:43.703Z,23.80
2022-09-04T00:05:20.094Z,23.70
2022-09-04T00:08:05.852Z,23.80
2022-09-04T00:10:43.159Z,23.70
2022-09-04T00:13:16.613Z,23.70
2022-09-04T00:15:49.328Z,23.70
2022-09-04T00:18:25.404Z,23.70
2022-09-04T00:21:00.292Z,23.70
2022-09-04T00:23:37.231Z,23.70
2022-09-04T00:26:14.643Z,23.70
2022-09-04T00:28:49.200Z,23.70
2022-09-04T00:31:26.939Z,23.70
2022-09-04T00:34:04.240Z,23.60
2022-09-04T00:36:33.053Z,23.60
2022-09-04T00:39:13.857Z,23.60
2022-09-04T00:41:52.888Z,23.60
2022-09-04T00:44:40.139Z,23.60
2022-09-04T00:47:32.310Z,23.50
2022-09-04T00:50:27.824Z,23.60
2022-09-04T00:53:37.702Z,23.50
2022-09-04T00:56:35.183Z,23.50
2022-09-04T00:59:12.046Z,23.50
2022-09-04T01:01:41.145Z,23.50
2022-09-04T01:04:32.798Z,23.50
2022-09-04T01:07:24.764Z,23.50
2022-09-04T01:10:23.072Z,23.40
2022-09-04T01:13:01.023Z,23.50
2022-09-04T01:15:37.442Z,23.40
2022-09-04T01:18:10.270Z,23.40
2022-09-04T01:20:54.829Z,23.40
2022-09-04T01:23:45.912Z,23.40
2022-09-04T01:26:26.518Z,23.40
2022-09-04T01:29:10.604Z,23.30
2022-09-04T01:31:49.224Z,23.30
2022-09-04T01:34:45.078Z,23.30
2022-09-04T01:37:34.701Z,23.30
2022-09-04T01:40:18.871Z,23.30
2022-09-04T01:42:53.366Z,23.30
2022-09-04T01:45:31.275Z,23.30
2022-09-04T01:48:04.120Z,23.20
2022-09-04T01:50:33.637Z,23.20
2022-09-04T01:53:07.715Z,23.20
2022-09-04T01:55:44.771Z,23.20
2022-09-04T01:58:20.099Z,23.20
2022-09-04T02:00:58.934Z,23.20
2022-09-04T02:03:34.326Z,23.10
2022-09-04T02:06:09.540Z,23.20
2022-09-04T02:08:55.117Z,23.10
2022-09-04T02:11:28.231Z,23.10
2022-09-04T02:14:27.079Z,23.10
2022-09-04T02:17:08.031Z,23.10
2022-09-04T02:19:57.368Z,23.10
2022-09-04T02:22:32.891Z,23.00
2022-09-04T02:25:11.830Z,23.00
2022-09-04T02:27:50.439Z,23.10
2022-09-04T02:30:21.434Z,23.00
2022-09-04T02:32:57.886Z,23.00
2022-09-04T02:35:33.506Z,23.00
2022-09-04T02:38:11.002Z,23.00
2022-09-04T02:40:47.217Z,23.00
2022-09-04T02:43:39.966Z,23.00
2022-09-04T02:46:16.821Z,23.00
2022-09-04T02:48:57.595Z,23.00
2022-09-04T02:51:43.294Z,22.90
2022-09-04T02:54:20.298Z,22.90
2022-09-04T02:56:59.983Z,22.90
2022-09-04T02:59:42.167Z,22.90
2022-09-04T03:02:20.702Z,22.90
2022-09-04T03:04:53.879Z,22.90
2022-09-04T03:07:31.001Z,22.80
2022-09-04T03:10:05.866Z,22.80
2022-09-04T03:12:43.174Z,22.80
2022-09-04T03:15:21.595Z,22.80
2022-09-04T03:17:59.862Z,22.80
2022-09-04T03:20:29.927Z,22.80
2022-09-04T03:23:02.576Z,22.80
2022-09-04T03:26:12.135Z,22.80
2022-09-04T03:28:52.817Z,22.80
2022-09-04T03:31:30.763Z,22.70
2022-09-04T03:34:14.841Z,22.70
2022-09-04T03:36:54.007Z,22.70
2022-09-04T03:39:31.866Z,22.70
2022-09-04T03:42:07.181Z,22.70
2022-09-04T03:44:52.235Z,22.70
2022-09-04T03:47:33.563Z,22.60
2022-09-04T03:50:12.658Z,22.60
2022-09-04T03:52:50.263Z,22.60
2022-09-04T03:55:42.166Z,22.60
2022-09-04T03:58:20.576Z,22.60
2022-09-04T04:01:09.913Z,22.60
2022-09-04T04:03:55.904Z,22.60
2022-09-04T04:06:35.213Z,22.60
2022-09-04T04:09:20.853Z,22.50
2022-09-04T04:12:27.483Z,22.60
2022-09-04T04:15:16.714Z,22.50
2022-09-04T04:18:04.399Z,22.60
2022-09-04T04:20:42.198Z,22.60
2022-09-04T04:23:41.673Z,22.50
2022-09-04T04:26:15.268Z,22.50
2022-09-04T04:29:08.622Z,22.50
2022-09-04T04:32:05.085Z,22.50
2022-09-04T04:34:41.195Z,22.50
2022-09-04T04:37:14.431Z,22.50
2022-09-04T04:39:52.961Z,22.50
2022-09-04T04:42:26.107Z,22.40
2022-09-04T04:45:30.161Z,22.40
2022-09-04T04:48:15.774Z,22.40
2022-09-04T04:50:51.722Z,22.40
2022-09-04T04:53:27.227Z,22.40
2022-09-04T04:56:04.723Z,22.40
2022-09-04T04:58:51.568Z,22.40
2022-09-04T05:01:31.951Z,22.40
2022-09-04T05:04:12.406Z,22.40
2022-09-04T05:06:48.736Z,22.40
2022-09-04T05:09:25.915Z,22.40
2022-09-04T05:12:04.564Z,22.40
2022-09-04T05:14:42.694Z,22.40
2022-09-04T05:17:21.528Z,22.40
2022-09-04T05:20:00.595Z,22.40
2022-09-04T05:22:38.681Z,22.40
2022-09-04T05:25:12.781Z,22.40
2022-09-04T05:27:52.875Z,22.40
2022-09-04T05:30:29.077Z,22.40
2022-09-04T05:33:04.086Z,22.40
2022-09-04T05:35:39.677Z,22.30
2022-09-04T05:38:16.679Z,22.30
2022-09-04T05:41:15.230Z,22.30
2022-09-04T05:44:06.329Z,22.30
2022-09-04T05:46:51.833Z,22.30
2022-09-04T05:49:36.000Z,22.30
2022-09-04T05:52:26.785Z,22.30
2022-09-04T05:55:31.712Z,22.30
2022-09-04T05:58:11.916Z,22.30
2022-09-04T06:00:53.517Z,22.30
2022-09-04T06:03:36.223Z,22.30
2022-09-04T06:06:11.373Z,22.30
2022-09-04T06:09:02.131Z,22.30
2022-09-04T06:11:49.800Z,22.30
2022-09-04T06:14:41.128Z,22.30
2022-09-04T06:17:23.789Z,22.30
2022-09-04T06:20:11.411Z,22.30
2022-09-04T06:23:03.521Z,22.30
2022-09-04T06:26:04.146Z,22.30
2022-09-04T06:28:53.168Z,22.30
2022-09-04T06:31:58.559Z,22.30
2022-09-04T06:34:53.280Z,22.40
2022-09-04T06:37:33.311Z,22.40
2022-09-04T06:40:16.669Z,22.40
2022-09-04T06:42:58.102Z,22.40
2022-09-04T06:45:36.452Z,22.40
2022-09-04T06:48:18.755Z,22.40
2022-09-04T06:50:59.167Z,22.40
2022-09-04T06:53:42.531Z,22.40
2022-09-04T06:56:36.585Z,22.40
2022-09-04T06:59:23.475Z,22.40
2022-09-04T07:02:02.982Z,22.50
2022-09-04T07:04:43.287Z,22.40
2022-09-04T07:07:21.902Z,22.50
2022-09-04T07:09:59.927Z,22.50
2022-09-04T07:13:06.704Z,22.50
2022-09-04T07:16:02.931Z,22.50
2022-09-04T07:18:52.119Z,22.50
2022-09-04T07:21:28.572Z,22.50
2022-09-04T07:24:07.238Z,22.50
2022-09-04T07:26:44.087Z,22.50
2022-09-04T07:29:30.817Z,22.50
2022-09-04T07:32:06.616Z,22.50
2022-09-04T07:34:44.582Z,22.50
2022-09-04T07:37:25.063Z,22.50
2022-09-04T07:40:08.085Z,22.50
2022-09-04T07:42:43.251Z,22.60
2022-09-04T07:45:23.091Z,22.60
2022-09-04T07:48:01.180Z,22.60
2022-09-04T07:50:36.361Z,22.70
2022-09-04T07:53:20.774Z,22.60
2022-09-04T07:55:52.877Z,22.60
2022-09-04T07:58:50.396Z,22.60
2022-09-04T08:01:43.846Z,22.70
2022-09-04T08:04:26.745Z,22.70
2022-09-04T08:06:59.930Z,22.70
2022-09-04T08:09:56.225Z,22.70
2022-09-04T08:12:56.325Z,22.70
2022-09-04T08:15:32.975Z,22.70
2022-09-04T08:18:29.629Z,22.70
2022-09-04T08:21:14.249Z,22.70
2022-09-04T08:24:08.227Z,22.80
2022-09-04T08:26:47.717Z,22.80
2022-09-04T08:29:33.363Z,22.80
2022-09-04T08:32:16.346Z,22.80
2022-09-04T08:34:57.913Z,22.80
2022-09-04T08:37:29.034Z,22.80
2022-09-04T08:40:19.863Z,22.80
2022-09-04T08:43:19.611Z,22.90
2022-09-04T08:46:27.111Z,22.90
2022-09-04T08:49:21.811Z,22.90
2022-09-04T08:52:43.285Z,22.90
2022-09-04T08:55:33.456Z,22.90
2022-09-04T08:58:49.578Z,23.00
2022-09-04T09:01:53.081Z,23.00
2022-09-04T09:04:55.151Z,23.00
2022-09-04T09:08:05.102Z,23.00
2022-09-04T09:11:03.386Z,23.00
2022-09-04T09:13:56.758Z,23.00
2022-09-04T09:16:42.830Z,23.00
2022-09-04T09:19:19.587Z,23.10
2022-09-04T09:21:59.071Z,23.10
2022-09-04T09:25:00.644Z,23.10
2022-09-04T09:27:59.893Z,23.10
2022-09-04T09:30:42.700Z,23.10
2022-09-04T09:33:58.584Z,23.10
2022-09-04T09:37:06.723Z,23.10
2022-09-04T09:40:23.170Z,23.20
2022-09-04T09:43:16.230Z,23.20
2022-09-04T09:46:20.804Z,23.20
2022-09-04T09:49:15.220Z,23.20
2022-09-04T09:52:03.855Z,23.20
2022-09-04T09:55:17.262Z,23.30
2022-09-04T09:58:19.222Z,23.30
2022-09-04T10:01:00.152Z,23.30
2022-09-04T10:04:11.831Z,23.30
2022-09-04T10:07:10.350Z,23.30
2022-09-04T10:10:17.737Z,23.30
2022-09-04T10:13:15.186Z,23.40
2022-09-04T10:16:05.763Z,23.40
2022-09-04T10:19:30.940Z,23.40
2022-09-04T10:22:34.174Z,23.50
2022-09-04T10:25:25.600Z,23.50
2022-09-04T10:28:27.988Z,23.50
2022-09-04T10:31:39.672Z,23.50
2022-09-04T10:34:26.184Z,23.50
2022-09-04T10:37:05.989Z,23.50
2022-09-04T10:40:06.790Z,23.60
2022-09-04T10:42:47.855Z,23.50
2022-09-04T10:45:21.149Z,23.60
2022-09-04T10:48:16.910Z,23.60
2022-09-04T10:51:21.359Z,23.70
2022-09-04T10:54:20.274Z,23.70
2022-09-04T10:57:02.793Z,23.70
2022-09-04T10:59:59.643Z,23.80
2022-09-04T11:03:13.056Z,23.80
2022-09-04T11:06:16.818Z,23.80
2022-09-04T11:09:12.453Z,23.90
2022-09-04T11:12:09.378Z,23.90
2022-09-04T11:15:04.326Z,24.00
2022-09-04T11:18:01.264Z,24.00
2022-09-04T11:21:19.216Z,24.00
2022-09-04T11:24:21.019Z,24.00
2022-09-04T11:27:32.001Z,24.10
2022-09-04T11:30:14.021Z,24.10
2022-09-04T11:33:30.287Z,24.10
2022-09-04T11:36:19.495Z,24.10
2022-09-04T11:39:20.600Z,24.10
2022-09-04T11:42:25.062Z,24.10
2022-09-04T11:45:29.743Z,24.20
2022-09-04T11:48:27.961Z,24.30
2022-09-04T11:51:19.080Z,24.30
2022-09-04T11:54:18.513Z,24.30
2022-09-04T11:57:02.562Z,24.30
2022-09-04T11:59:51.779Z,24.40
2022-09-04T12:02:49.696Z,24.40
2022-09-04T12:05:39.670Z,24.40
2022-09-04T12:08:32.607Z,24.50
2022-09-04T12:12:00.432Z,24.40
2022-09-04T12:14:49.385Z,24.50
2022-09-04T12:17:56.407Z,24.50
2022-09-04T12:20:55.204Z,24.60
2022-09-04T12:24:01.542Z,24.60
2022-09-04T12:27:03.399Z,24.60
2022-09-04T12:30:05.146Z,24.60
2022-09-04T12:33:09.950Z,24.60
2022-09-04T12:36:10.302Z,24.70
2022-09-04T12:39:14.147Z,24.70
2022-09-04T12:41:50.179Z,24.80
2022-09-04T12:44:27.183Z,24.80
2022-09-04T12:47:13.938Z,24.90
2022-09-04T12:50:33.275Z,24.90
2022-09-04T12:53:19.164Z,25.00
2022-09-04T12:56:03.081Z,25.00
2022-09-04T12:58:44.461Z,25.10
2022-09-04T13:01:21.570Z,25.10
2022-09-04T13:03:58.858Z,25.10
2022-09-04T13:06:33.089Z,25.10
2022-09-04T13:09:14.119Z,25.20
2022-09-04T13:11:54.543Z,25.20
2022-09-04T13:14:57.998Z,25.30
2022-09-04T13:17:33.847Z,25.30
2022-09-04T13:20:14.619Z,25.40
2022-09-04T13:22:56.106Z,25.40
2022-09-04T13:25:37.491Z,25.40
2022-09-04T13:28:17.331Z,25.50
2022-09-04T13:30:53.327Z,25.50
2022-09-04T13:33:39.897Z,25.60
2022-09-04T13:36:19.992Z,25.60
2022-09-04T13:39:17.157Z,25.60
2022-09-04T13:42:14.916Z,25.70
2022-09-04T13:45:04.022Z,25.70
2022-09-04T13:47:39.868Z,25.70
2022-09-04T13:50:16.171Z,25.80
2022-09-04T13:52:50.056Z,25.80
2022-09-04T13:55:23.086Z,25.80
2022-09-04T13:58:01.088Z,25.90
2022-09-04T14:00:33.110Z,25.90
2022-09-04T14:03:07.283Z,25.90
2022-09-04T14:05:37.593Z,25.90
2022-09-04T14:08:10.429Z,26.00
2022-09-04T14:11:02.511Z,26.00
2022-09-04T14:13:44.934Z,26.00
2022-09-04T14:16:15.486Z,26.10
2022-09-04T14:19:15.826Z,26.10
2022-09-04T14:22:03.488Z,26.20
2022-09-04T14:24:40.988Z,26.20
2022-09-04T14:27:14.445Z,26.20
2022-09-04T14:29:57.806Z,26.50
2022-09-04T14:32:33.950Z,26.30
2022-09-04T14:35:11.240Z,26.30
2022-09-04T14:38:04.448Z,26.30
2022-09-04T14:40:35.612Z,26.30
2022-09-04T14:43:22.349Z,26.30
2022-09-04T14:46:10.619Z,26.40
2022-09-04T14:48:42.311Z,26.40
2022-09-04T14:51:18.293Z,26.40
2022-09-04T14:53:55.861Z,26.50
2022-09-04T14:56:31.080Z,26.40
2022-09-04T14:59:08.391Z,26.50
2022-09-04T15:01:55.428Z,26.50
2022-09-04T15:04:27.060Z,26.50
2022-09-04T15:07:11.306Z,26.50
2022-09-04T15:09:43.251Z,26.60
2022-09-04T15:12:25.337Z,26.50
2022-09-04T15:15:03.893Z,26.60
2022-09-04T15:17:39.170Z,26.60
2022-09-04T15:20:17.011Z,26.60
2022-09-04T15:22:50.348Z,26.70
2022-09-04T15:25:58.332Z,26.70
2022-09-04T15:28:38.458Z,26.70
2022-09-04T15:31:15.838Z,26.70
2022-09-04T15:33:48.465Z,26.80
2022-09-04T15:36:20.178Z,26.80
2022-09-04T15:38:52.104Z,26.80
2022-09-04T15:41:27.605Z,26.90
2022-09-04T15:44:02.715Z,26.90
2022-09-04T15:46:44.089Z,26.90
2022-09-04T15:49:31.288Z,26.90
2022-09-04T15:52:21.413Z,26.90
2022-09-04T15:55:05.158Z,26.90
2022-09-04T15:57:44.266Z,26.80
2022-09-04T16:00:17.390Z,26.80
2022-09-04T16:02:54.631Z,26.80
2022-09-04T16:05:32.327Z,26.80
2022-09-04T16:08:07.607Z,26.90
2022-09-04T16:10:57.366Z,26.90
2022-09-04T16:13:36.535Z,26.90
2022-09-04T16:16:11.283Z,26.90
2022-09-04T16:19:02.590Z,27.00
2022-09-04T16:21:44.461Z,27.00
2022-09-04T16:24:16.280Z,27.00
2022-09-04T16:26:50.291Z,27.00
2022-09-04T16:29:36.933Z,27.10
2022-09-04T16:32:09.654Z,27.10
2022-09-04T16:34:47.091Z,27.10
2022-09-04T16:37:23.541Z,27.10
2022-09-04T16:40:02.183Z,27.20
2022-09-04T16:42:37.697Z,27.20
2022-09-04T16:45:11.512Z,27.20
2022-09-04T16:47:46.169Z,27.20
2022-09-04T16:50:24.867Z,27.20
2022-09-04T16:53:12.914Z,27.20
2022-09-04T16:55:48.102Z,27.20
2022-09-04T16:58:35.576Z,27.20
2022-09-04T17:01:14.776Z,27.30
2022-09-04T17:04:12.466Z,27.30
2022-09-04T17:06:47.694Z,27.30
2022-09-04T17:09:24.656Z,27.40
2022-09-04T17:11:56.358Z,27.40
2022-09-04T17:14:31.749Z,27.40
2022-09-04T17:17:12.549Z,27.40
2022-09-04T17:20:08.112Z,27.40
2022-09-04T17:29:04.062Z,27.40
2022-09-04T17:29:09.739Z,27.30
2022-09-04T17:29:11.751Z,27.40
2022-09-04T17:31:45.671Z,27.20
2022-09-04T17:40:35.769Z,27.20
2022-09-04T17:40:52.231Z,27.10
2022-09-04T17:40:53.992Z,27.10
2022-09-04T17:43:22.988Z,27.10
2022-09-04T17:46:02.673Z,27.10
2022-09-04T17:48:33.230Z,27.00
2022-09-04T17:51:04.074Z,27.00
2022-09-04T17:53:35.068Z,26.90
2022-09-04T17:56:09.306Z,26.90
2022-09-04T17:58:44.033Z,26.90
2022-09-04T18:01:19.938Z,26.90
2022-09-04T18:04:20.794Z,26.80
2022-09-04T18:06:55.737Z,26.70
2022-09-04T18:09:31.997Z,26.70
2022-09-04T18:12:11.088Z,26.70
2022-09-04T18:15:25.175Z,26.70
2022-09-04T18:17:50.475Z,26.60
2022-09-04T18:20:29.465Z,26.60
2022-09-04T18:23:23.586Z,26.50
2022-09-04T18:25:56.807Z,26.50
2022-09-04T18:28:33.936Z,26.40
2022-09-04T18:37:12.273Z,26.40
2022-09-04T18:37:17.802Z,26.40
2022-09-04T18:37:46.020Z,26.40
2022-09-04T18:40:11.640Z,26.30
2022-09-04T18:50:22.073Z,26.30
2022-09-04T18:50:34.465Z,26.30
2022-09-04T18:50:43.189Z,26.20
2022-09-04T18:51:31.089Z,26.20
2022-09-04T18:54:08.374Z,26.10
2022-09-04T18:56:42.849Z,26.10
2022-09-04T18:59:16.990Z,26.10
2022-09-04T19:01:50.480Z,26.10
2022-09-04T19:04:43.318Z,26.10
2022-09-04T19:07:27.375Z,26.00
2022-09-04T19:10:22.154Z,26.00
2022-09-04T19:13:04.851Z,26.00
2022-09-04T19:15:50.660Z,26.00
2022-09-04T19:18:29.677Z,25.90
2022-09-04T19:23:58.801Z,25.90
2022-09-04T19:26:36.091Z,25.90
2022-09-04T19:29:12.219Z,25.80
2022-09-04T19:31:44.813Z,25.80
2022-09-04T19:34:20.606Z,25.80
2022-09-04T19:36:55.729Z,25.70
2022-09-04T19:45:54.333Z,25.70
2022-09-04T19:46:02.227Z,25.70
2022-09-04T19:46:06.659Z,25.70
2022-09-04T19:48:27.332Z,25.70
2022-09-04T19:53:30.394Z,25.50
2022-09-04T19:53:56.308Z,25.60
2022-09-04T19:56:31.135Z,25.60
2022-09-04T19:59:06.578Z,25.60
2022-09-04T20:01:45.845Z,25.60
2022-09-04T20:04:26.072Z,25.50
2022-09-04T20:06:59.266Z,25.50
2022-09-04T20:09:33.959Z,25.50
2022-09-04T20:12:12.777Z,25.50
2022-09-04T20:14:47.027Z,25.50
2022-09-04T20:17:35.241Z,25.50
2022-09-04T20:20:15.380Z,25.40
2022-09-04T20:22:49.136Z,25.40
2022-09-04T20:25:40.911Z,25.40
2022-09-04T20:28:23.564Z,25.40
2022-09-04T20:31:33.334Z,25.30
2022-09-04T20:34:00.428Z,25.30
2022-09-04T20:36:35.821Z,25.30
2022-09-04T20:39:10.009Z,25.30
2022-09-04T20:41:49.569Z,25.20
2022-09-04T20:44:24.567Z,25.20
2022-09-04T20:52:46.367Z,25.20
2022-09-04T20:52:53.515Z,25.20
2022-09-04T20:53:13.425Z,25.20
2022-09-04T20:55:54.887Z,25.20
2022-09-04T21:03:10.208Z,25.10
2022-09-04T21:03:19.610Z,25.10
2022-09-04T21:04:43.044Z,25.10
2022-09-04T21:07:24.570Z,25.10
2022-09-04T21:10:09.549Z,25.10
2022-09-04T21:12:43.901Z,25.10
2022-09-04T21:15:24.877Z,25.10
2022-09-04T21:18:14.377Z,25.00
2022-09-04T21:21:00.035Z,25.00
2022-09-04T21:23:56.470Z,25.00
2022-09-04T21:26:50.781Z,25.00
2022-09-04T21:29:46.538Z,24.90
2022-09-04T21:32:29.951Z,24.90
2022-09-04T21:35:07.770Z,24.90
2022-09-04T21:37:46.936Z,24.90
2022-09-04T21:40:51.727Z,24.90
2022-09-04T21:44:00.122Z,24.90
2022-09-04T21:46:59.453Z,24.90
2022-09-04T21:50:24.643Z,24.80
2022-09-04T21:53:23.723Z,24.80
2022-09-04T22:02:13.725Z,24.80
2022-09-04T22:02:44.811Z,24.80
2022-09-04T22:02:51.355Z,24.80
2022-09-04T22:05:31.419Z,24.70
2022-09-04T22:13:31.499Z,24.70
2022-09-04T22:13:43.610Z,24.70
2022-09-04T22:14:11.758Z,24.60
2022-09-04T22:17:07.450Z,24.60
2022-09-04T22:20:07.634Z,24.60
2022-09-04T22:23:11.483Z,24.60
2022-09-04T22:25:48.813Z,24.60
2022-09-04T22:28:51.235Z,24.60
2022-09-04T22:31:47.501Z,24.50
2022-09-04T22:34:34.624Z,24.50
2022-09-04T22:37:40.321Z,24.50
2022-09-04T22:40:30.935Z,24.70
2022-09-04T22:43:11.536Z,24.50
2022-09-04T22:46:31.099Z,24.50
2022-09-04T22:49:25.928Z,24.50
2022-09-04T22:52:15.829Z,24.50
2022-09-04T22:55:09.074Z,24.40
2022-09-04T22:58:01.879Z,24.40
2022-09-04T23:00:42.003Z,24.40
2022-09-04T23:03:33.071Z,24.40
2022-09-04T23:11:09.642Z,24.40
2022-09-04T23:13:43.581Z,24.40
2022-09-04T23:13:50.737Z,24.30
2022-09-04T23:16:44.708Z,24.30
2022-09-04T23:23:53.471Z,24.30
2022-09-04T23:26:37.308Z,24.30
2022-09-04T23:26:50.718Z,24.30
2022-09-04T23:29:40.975Z,24.30
2022-09-04T23:32:29.472Z,24.20
2022-09-04T23:35:15.725Z,24.30
2022-09-04T23:38:09.981Z,24.20
2022-09-04T23:40:45.018Z,24.20
2022-09-04T23:43:47.689Z,24.20
2022-09-04T23:46:43.376Z,24.20
2022-09-04T23:49:41.796Z,24.20
2022-09-04T23:52:22.086Z,24.10
2022-09-04T23:55:08.031Z,24.10
2022-09-04T23:57:45.840Z,24.10
